Time;durP1;ratioP1;P1;durP2;ratioP2;P2;SDS_P1;SDS_P2;PMS_P1;PMS_P2;Temp;Humidity;BMP_temperature;BMP_pressure;BME280_temperature;BME280_humidity;BME280_pressure;Samples;Min_cycle;Max_cycle;Signal;HPM_P1;HPM_P2
2021/01/28 00:01:57;;;;;;;17.15;7.05;;;;;;;;;;1772585;79;21195;-73
2021/01/28 00:04:23;;;;;;;20.57;8.03;;;;;;;;;;1776051;79;21215;-73
2021/01/28 00:06:50;;;;;;;16.55;7.58;;;;;;;;;;1771289;79;21199;-79
2021/01/28 00:09:16;;;;;;;16.77;8.33;;;;;;;;;;1760134;80;21627;-79
2021/01/28 00:11:42;;;;;;;13.72;7.83;;;;;;;;;;1760227;81;21184;-74
2021/01/28 00:14:08;;;;;;;16.90;7.53;;;;;;;;;;1760367;81;21159;-80
2021/01/28 00:16:34;;;;;;;21.73;8.70;;;;;;;;;;1759265;81;21168;-79
2021/01/28 00:19:00;;;;;;;16.97;8.25;;;;;;;;;;1754096;81;21176;-79
2021/01/28 00:21:27;;;;;;;12.73;7.33;;;;;;;;;;1759344;81;21175;-74
2021/01/28 00:23:53;;;;;;;15.72;9.20;;;;;;;;;;1759110;81;21172;-74
2021/01/28 00:26:19;;;;;;;19.82;9.35;;;;;;;;;;1759294;81;21648;-76
2021/01/28 00:28:45;;;;;;;17.98;8.30;;;;;;;;;;1759359;81;21196;-73
2021/01/28 00:31:11;;;;;;;19.52;8.40;;;;;;;;;;1760162;81;21636;-75
2021/01/28 00:33:37;;;;;;;17.67;9.38;;;;;;;;;;1760514;81;21247;-78
2021/01/28 00:36:04;;;;;;;15.63;8.53;;;;;;;;;;1759318;81;21169;-73
2021/01/28 00:38:32;;;;;;;17.95;7.78;;;;;;;;;;1760766;81;21159;-73
2021/01/28 00:40:58;;;;;;;17.95;9.03;;;;;;;;;;1760583;81;21200;-79
2021/01/28 00:43:24;;;;;;;19.07;9.30;;;;;;;;;;1759470;81;21178;-79
2021/01/28 00:45:50;;;;;;;18.77;8.78;;;;;;;;;;1758460;79;21195;-78
2021/01/28 00:48:17;;;;;;;17.23;8.75;;;;;;;;;;1760020;81;21184;-78
2021/01/28 00:50:43;;;;;;;20.92;8.83;;;;;;;;;;1760000;81;21191;-73
2021/01/28 00:53:10;;;;;;;16.48;7.72;;;;;;;;;;1760574;81;21169;-78
2021/01/28 00:55:36;;;;;;;17.20;8.23;;;;;;;;;;1759716;81;21492;-73
2021/01/28 00:58:03;;;;;;;17.50;8.58;;;;;;;;;;1756777;81;21251;-76
2021/01/28 01:00:31;;;;;;;19.62;8.93;;;;;;;;;;1749602;81;21180;-72
2021/01/28 01:02:57;;;;;;;19.92;9.43;;;;;;;;;;1797367;79;21176;-79
2021/01/28 01:05:25;;;;;;;19.27;9.30;;;;;;;;;;1811577;79;21163;-74
2021/01/28 01:07:51;;;;;;;16.02;8.83;;;;;;;;;;1810467;79;21190;-78
2021/01/28 01:10:25;;;;;;;13.38;6.75;;;;;;;;;;1804673;78;21230;-80
2021/01/28 01:12:51;;;;;;;16.17;7.47;;;;;;;;;;1804833;79;21148;-79
2021/01/28 01:15:18;;;;;;;14.00;7.53;;;;;;;;;;1811892;78;21212;-78
2021/01/28 01:17:44;;;;;;;11.97;7.12;;;;;;;;;;1773216;80;21599;-79
2021/01/28 01:20:11;;;;;;;12.25;6.15;;;;;;;;;;1773040;79;21287;-79
2021/01/28 01:22:37;;;;;;;13.83;5.65;;;;;;;;;;1773246;79;21166;-72
2021/01/28 01:25:04;;;;;;;17.02;8.28;;;;;;;;;;1773054;79;21592;-73
2021/01/28 01:27:30;;;;;;;16.52;6.20;;;;;;;;;;1773172;79;21157;-73
2021/01/28 01:29:56;;;;;;;14.87;7.30;;;;;;;;;;1797692;79;21179;-79
2021/01/28 01:32:22;;;;;;;14.18;7.25;;;;;;;;;;1804698;79;21296;-78
2021/01/28 01:34:48;;;;;;;15.75;8.55;;;;;;;;;;1804709;78;21570;-73
2021/01/28 01:37:14;;;;;;;12.58;5.78;;;;;;;;;;1835708;78;21156;-72
2021/01/28 01:39:41;;;;;;;9.90;5.62;;;;;;;;;;1837996;78;21158;-73
2021/01/28 01:42:07;;;;;;;14.83;7.10;;;;;;;;;;1838159;78;21209;-73
2021/01/28 01:44:33;;;;;;;14.13;7.15;;;;;;;;;;1811551;78;21154;-72
2021/01/28 01:47:17;;;;;;;13.85;7.50;;;;;;;;;;1802606;79;21191;-73
2021/01/28 01:49:44;;;;;;;11.00;5.87;;;;;;;;;;1804976;79;21583;-78
2021/01/28 01:52:10;;;;;;;10.23;5.12;;;;;;;;;;1805005;79;21276;-72
2021/01/28 01:54:36;;;;;;;10.72;5.65;;;;;;;;;;1804612;79;22203;-78
2021/01/28 01:57:04;;;;;;;13.13;5.33;;;;;;;;;;1804596;79;21147;-72
2021/01/28 01:59:32;;;;;;;15.10;7.58;;;;;;;;;;1804274;78;21207;-72
2021/01/28 02:02:01;;;;;;;13.62;6.03;;;;;;;;;;1789931;78;21158;-72
2021/01/28 02:04:28;;;;;;;11.33;6.30;;;;;;;;;;1773066;80;21700;-78
2021/01/28 02:06:55;;;;;;;11.90;6.72;;;;;;;;;;1773128;79;21162;-78
2021/01/28 02:09:21;;;;;;;9.33;5.22;;;;;;;;;;1773116;81;21147;-79
2021/01/28 02:11:50;;;;;;;19.57;7.60;;;;;;;;;;1773106;79;21681;-79
2021/01/28 02:14:17;;;;;;;13.72;7.12;;;;;;;;;;1788594;79;21174;-72
2021/01/28 02:16:48;;;;;;;11.25;6.00;;;;;;;;;;1804681;78;21144;-72
2021/01/28 02:19:16;;;;;;;16.32;7.67;;;;;;;;;;1804349;79;21195;-79
2021/01/28 02:21:42;;;;;;;13.62;6.35;;;;;;;;;;1782238;79;21210;-72
2021/01/28 02:24:10;;;;;;;11.57;6.28;;;;;;;;;;1804499;79;21147;-73
2021/01/28 02:26:39;;;;;;;11.80;5.75;;;;;;;;;;1804638;78;21159;-79
2021/01/28 02:29:05;;;;;;;15.35;5.50;;;;;;;;;;1804557;79;21706;-78
2021/01/28 02:31:31;;;;;;;14.18;6.83;;;;;;;;;;1804859;79;21163;-72
2021/01/28 02:33:58;;;;;;;13.50;7.40;;;;;;;;;;1804802;79;21194;-79
2021/01/28 02:36:29;;;;;;;13.53;6.40;;;;;;;;;;1804641;79;21167;-79
2021/01/28 02:38:55;;;;;;;14.07;6.95;;;;;;;;;;1804179;79;21128;-72
2021/01/28 02:41:21;;;;;;;13.75;6.33;;;;;;;;;;1804756;79;21588;-78
2021/01/28 02:43:47;;;;;;;11.63;5.65;;;;;;;;;;1804903;78;21561;-79
2021/01/28 02:46:14;;;;;;;8.60;5.78;;;;;;;;;;1805755;78;21132;-79
2021/01/28 02:48:41;;;;;;;14.43;7.70;;;;;;;;;;1804578;78;21158;-79
2021/01/28 02:51:07;;;;;;;14.30;8.15;;;;;;;;;;1789735;78;21194;-73
2021/01/28 02:53:34;;;;;;;14.00;6.58;;;;;;;;;;1785981;79;21158;-72
2021/01/28 02:56:00;;;;;;;13.20;6.87;;;;;;;;;;1786010;79;21159;-71
2021/01/28 02:58:26;;;;;;;14.90;7.67;;;;;;;;;;1789083;79;21599;-72
2021/01/28 03:00:53;;;;;;;12.95;5.92;;;;;;;;;;1815199;78;21348;-72
2021/01/28 03:03:19;;;;;;;11.75;6.40;;;;;;;;;;1838011;78;21139;-72
2021/01/28 03:05:45;;;;;;;12.03;6.95;;;;;;;;;;1834804;78;21685;-78
2021/01/28 03:08:11;;;;;;;15.70;7.95;;;;;;;;;;1804326;79;21163;-72
2021/01/28 03:10:37;;;;;;;13.48;6.78;;;;;;;;;;1804540;79;21147;-78
2021/01/28 03:13:03;;;;;;;16.07;7.87;;;;;;;;;;1804522;79;21301;-74
2021/01/28 03:15:30;;;;;;;14.60;6.75;;;;;;;;;;1772761;78;21152;-72
2021/01/28 03:17:56;;;;;;;15.00;6.37;;;;;;;;;;1773417;79;21156;-74
2021/01/28 03:20:23;;;;;;;12.33;6.75;;;;;;;;;;1772805;79;21157;-78
2021/01/28 03:22:50;;;;;;;16.15;7.05;;;;;;;;;;1773102;80;21160;-77
2021/01/28 03:25:16;;;;;;;14.30;7.03;;;;;;;;;;1772821;79;21608;-72
2021/01/28 03:27:42;;;;;;;14.70;7.72;;;;;;;;;;1772810;79;21275;-71
2021/01/28 03:30:11;;;;;;;9.63;4.97;;;;;;;;;;1800404;79;21293;-78
2021/01/28 03:32:37;;;;;;;16.30;8.00;;;;;;;;;;1804561;78;21301;-79
2021/01/28 03:35:04;;;;;;;13.10;5.80;;;;;;;;;;1804853;79;21190;-79
2021/01/28 03:37:30;;;;;;;14.75;6.75;;;;;;;;;;1836038;78;21603;-78
2021/01/28 03:39:56;;;;;;;16.77;7.15;;;;;;;;;;1837815;78;21167;-72
2021/01/28 03:42:22;;;;;;;12.47;7.05;;;;;;;;;;1838005;78;21664;-79
2021/01/28 03:44:48;;;;;;;16.50;8.08;;;;;;;;;;1794244;78;21168;-72
2021/01/28 03:47:14;;;;;;;17.52;8.18;;;;;;;;;;1772889;79;21299;-79
2021/01/28 03:49:40;;;;;;;17.23;7.72;;;;;;;;;;1772927;81;21600;-79
2021/01/28 03:52:06;;;;;;;17.67;8.28;;;;;;;;;;1772903;79;21290;-79
2021/01/28 03:54:33;;;;;;;13.72;7.03;;;;;;;;;;1772941;79;21176;-73
2021/01/28 03:56:59;;;;;;;18.82;7.60;;;;;;;;;;1772865;79;21290;-72
2021/01/28 03:59:25;;;;;;;14.40;6.92;;;;;;;;;;1790646;79;21195;-73
2021/01/28 04:01:52;;;;;;;14.13;7.00;;;;;;;;;;1791007;78;21294;-73
2021/01/28 04:04:18;;;;;;;14.98;7.00;;;;;;;;;;1799208;78;21151;-73
2021/01/28 04:06:44;;;;;;;16.60;7.92;;;;;;;;;;1804556;78;21170;-73
2021/01/28 04:09:10;;;;;;;14.85;7.67;;;;;;;;;;1804080;79;21360;-79
2021/01/28 04:11:36;;;;;;;15.23;8.15;;;;;;;;;;1802845;79;21583;-73
2021/01/28 04:14:02;;;;;;;17.87;8.18;;;;;;;;;;1802969;79;21329;-79
2021/01/28 04:16:28;;;;;;;12.88;6.20;;;;;;;;;;1802918;79;21136;-79
2021/01/28 04:18:54;;;;;;;18.10;8.03;;;;;;;;;;1803059;79;21147;-72
2021/01/28 04:21:21;;;;;;;15.88;7.95;;;;;;;;;;1802849;79;21179;-73
2021/01/28 04:23:47;;;;;;;17.62;8.40;;;;;;;;;;1802775;79;21160;-78
2021/01/28 04:26:13;;;;;;;15.15;7.00;;;;;;;;;;1802809;79;21198;-71
2021/01/28 04:28:39;;;;;;;15.60;6.67;;;;;;;;;;1802893;79;21120;-79
2021/01/28 04:31:06;;;;;;;14.60;7.42;;;;;;;;;;1795951;79;21167;-78
2021/01/28 04:33:33;;;;;;;10.82;5.17;;;;;;;;;;1766582;80;21156;-74
2021/01/28 04:35:59;;;;;;;14.70;6.72;;;;;;;;;;1792776;78;21134;-79
2021/01/28 04:38:25;;;;;;;14.90;8.05;;;;;;;;;;1792569;80;21196;-78
2021/01/28 04:40:52;;;;;;;15.90;6.62;;;;;;;;;;1810692;78;21151;-79
2021/01/28 04:43:23;;;;;;;13.55;7.12;;;;;;;;;;1821513;78;21171;-78
2021/01/28 04:45:50;;;;;;;13.40;6.83;;;;;;;;;;1792387;78;21584;-77
2021/01/28 04:48:16;;;;;;;9.98;5.90;;;;;;;;;;1793009;80;21174;-80
2021/01/28 04:50:42;;;;;;;14.47;6.78;;;;;;;;;;1792637;80;21147;-79
2021/01/28 04:53:22;;;;;;;10.28;4.85;;;;;;;;;;1792542;80;21173;-78
2021/01/28 04:55:49;;;;;;;8.45;4.75;;;;;;;;;;1792756;80;21122;-72
2021/01/28 04:58:15;;;;;;;14.55;6.78;;;;;;;;;;1795304;78;21162;-79
2021/01/28 05:00:41;;;;;;;11.35;5.50;;;;;;;;;;1824799;78;22045;-73
2021/01/28 05:03:15;;;;;;;13.83;6.33;;;;;;;;;;1825005;78;21576;-79
2021/01/28 05:05:41;;;;;;;12.50;5.60;;;;;;;;;;1824937;78;21150;-72
2021/01/28 05:08:07;;;;;;;16.73;6.97;;;;;;;;;;1824905;78;21792;-72
2021/01/28 05:10:39;;;;;;;14.93;7.15;;;;;;;;;;1824683;78;21270;-72
2021/01/28 05:13:06;;;;;;;12.70;6.35;;;;;;;;;;1824457;78;21610;-73
2021/01/28 05:15:34;;;;;;;13.72;6.05;;;;;;;;;;1792556;78;21146;-74
2021/01/28 05:18:02;;;;;;;11.53;5.92;;;;;;;;;;1792555;80;21150;-79
2021/01/28 05:20:28;;;;;;;12.85;6.30;;;;;;;;;;1792585;80;21170;-79
2021/01/28 05:23:03;;;;;;;13.53;6.62;;;;;;;;;;1792515;80;21213;-73
2021/01/28 05:25:34;;;;;;;13.62;6.55;;;;;;;;;;1792683;80;21601;-79
2021/01/28 05:28:02;;;;;;;14.45;6.95;;;;;;;;;;1793304;78;21146;-74
2021/01/28 05:30:35;;;;;;;12.63;5.95;;;;;;;;;;1818895;78;21194;-79
2021/01/28 05:33:02;;;;;;;12.90;6.58;;;;;;;;;;1793104;78;21132;-72
2021/01/28 05:35:29;;;;;;;13.20;5.90;;;;;;;;;;1793098;78;21177;-73
2021/01/28 05:38:06;;;;;;;14.03;6.53;;;;;;;;;;1792939;80;21612;-80
2021/01/28 05:40:32;;;;;;;12.20;5.83;;;;;;;;;;1792732;78;21153;-79
2021/01/28 05:42:58;;;;;;;11.30;5.28;;;;;;;;;;1792526;80;21150;-79
2021/01/28 05:45:35;;;;;;;9.88;5.92;;;;;;;;;;1823511;78;21154;-73
2021/01/28 05:48:03;;;;;;;11.30;6.05;;;;;;;;;;1819669;79;21151;-73
2021/01/28 05:50:30;;;;;;;18.07;7.22;;;;;;;;;;1820556;78;21189;-80
2021/01/28 05:53:09;;;;;;;13.45;5.72;;;;;;;;;;1819955;79;21574;-79
2021/01/28 05:55:35;;;;;;;12.78;6.20;;;;;;;;;;1820021;79;21151;-79
2021/01/28 05:58:03;;;;;;;13.88;6.20;;;;;;;;;;1819707;79;21199;-73
2021/01/28 06:00:43;;;;;;;10.35;4.80;;;;;;;;;;1792564;79;21219;-73
2021/01/28 06:03:27;;;;;;;16.15;7.70;;;;;;;;;;1798374;78;21167;-77
2021/01/28 06:05:56;;;;;;;12.28;5.87;;;;;;;;;;1804861;78;21195;-80
2021/01/28 06:08:42;;;;;;;14.73;6.72;;;;;;;;;;1799794;78;21745;-73
2021/01/28 06:11:26;;;;;;;12.45;6.62;;;;;;;;;;1794871;78;21741;-79
2021/01/28 06:13:52;;;;;;;;;;;;;;;;;;1787659;78;22234;-78
2021/01/28 06:16:20;;;;;;;12.95;7.03;;;;;;;;;;1785369;78;20232;-72
2021/01/28 06:19:05;;;;;;;9.88;5.33;;;;;;;;;;1783663;78;21166;-73
2021/01/28 06:21:49;;;;;;;16.20;7.47;;;;;;;;;;1789612;78;21718;-78
2021/01/28 06:24:17;;;;;;;14.25;7.83;;;;;;;;;;1786413;78;21641;-78
2021/01/28 06:26:48;;;;;;;16.52;7.87;;;;;;;;;;1783627;78;21179;-76
2021/01/28 06:29:33;;;;;;;11.38;5.25;;;;;;;;;;1794760;78;21171;-76
2021/01/28 06:32:14;;;;;;;13.70;6.35;;;;;;;;;;1786430;78;21192;-76
2021/01/28 06:34:54;;;;;;;31.05;7.75;;;;;;;;;;1796540;78;21151;-76
2021/01/28 06:37:23;;;;;;;9.33;4.92;;;;;;;;;;1788685;78;21566;-75
2021/01/28 06:39:49;;;;;;;15.68;7.33;;;;;;;;;;1783662;78;21841;-72
2021/01/28 06:42:32;;;;;;;12.10;6.55;;;;;;;;;;1784056;78;21191;-77
2021/01/28 06:45:03;;;;;;;16.70;7.33;;;;;;;;;;1787150;78;21198;-75
2021/01/28 06:47:31;;;;;;;15.63;5.05;;;;;;;;;;1792810;78;21186;-81
2021/01/28 06:49:59;;;;;;;16.67;8.40;;;;;;;;;;1806829;78;21192;-73
2021/01/28 06:52:36;;;;;;;15.00;8.15;;;;;;;;;;1784608;78;21186;-77
2021/01/28 06:55:10;;;;;;;17.42;8.50;;;;;;;;;;1773510;78;21166;-78
2021/01/28 06:57:50;;;;;;;13.22;6.12;;;;;;;;;;1794261;78;22273;-78
2021/01/28 07:00:33;;;;;;;16.02;7.58;;;;;;;;;;1798648;78;21582;-78
2021/01/28 07:03:01;;;;;;;16.82;6.97;;;;;;;;;;1787522;78;21656;-73
2021/01/28 07:05:36;;;;;;;13.43;6.62;;;;;;;;;;1805208;78;21138;-78
2021/01/28 07:08:04;;;;;;;18.10;8.50;;;;;;;;;;1747857;78;21259;-73
2021/01/28 07:10:37;;;;;;;20.27;8.15;;;;;;;;;;1799208;78;21127;-76
2021/01/28 07:13:04;;;;;;;17.77;7.65;;;;;;;;;;1787368;78;21147;-75
2021/01/28 07:15:30;;;;;;;17.92;8.08;;;;;;;;;;1787636;78;21177;-74
2021/01/28 07:17:58;;;;;;;15.95;8.50;;;;;;;;;;1788628;78;21096;-75
2021/01/28 07:20:34;;;;;;;17.10;7.60;;;;;;;;;;1784097;78;21138;-74
2021/01/28 07:23:15;;;;;;;18.87;8.50;;;;;;;;;;1783415;78;21111;-75
2021/01/28 07:25:41;;;;;;;16.40;8.25;;;;;;;;;;1730018;78;21514;-79
2021/01/28 07:28:22;;;;;;;16.40;7.35;;;;;;;;;;1775571;78;21130;-73
2021/01/28 07:30:52;;;;;;;13.53;7.75;;;;;;;;;;1801373;78;21155;-76
2021/01/28 07:33:26;;;;;;;15.85;6.53;;;;;;;;;;1817166;78;21186;-74
2021/01/28 07:35:54;;;;;;;18.02;8.25;;;;;;;;;;1782125;78;21433;-77
2021/01/28 07:38:29;;;;;;;16.80;8.33;;;;;;;;;;1789637;78;21588;-80
2021/01/28 07:41:03;;;;;;;16.42;7.87;;;;;;;;;;1779780;78;21718;-74
2021/01/28 07:43:30;;;;;;;17.42;7.65;;;;;;;;;;1780549;78;21613;-80
2021/01/28 07:46:10;;;;;;;20.05;8.65;;;;;;;;;;1781058;78;21312;-74
2021/01/28 07:48:36;;;;;;;18.82;8.43;;;;;;;;;;1782359;79;21205;-75
2021/01/28 07:51:22;;;;;;;15.72;7.37;;;;;;;;;;1786986;80;21693;-78
2021/01/28 07:53:48;;;;;;;;;;;;;;;;;;1772009;80;21180;-81
2021/01/28 07:56:16;;;;;;;13.75;7.08;;;;;;;;;;1770876;80;20398;-72
2021/01/28 07:58:42;;;;;;;11.70;6.25;;;;;;;;;;1750059;81;21166;-71
2021/01/28 08:01:28;;;;;;;12.60;7.10;;;;;;;;;;1771817;81;21203;-78
2021/01/28 08:04:08;;;;;;;16.60;7.65;;;;;;;;;;1744417;81;21274;-79
2021/01/28 08:06:35;;;;;;;10.93;6.83;;;;;;;;;;1740511;81;21210;-79
2021/01/28 08:09:19;;;;;;;;;;;;;;;;;;;;;
2021/01/28 08:11:51;;;;;;;10.20;5.55;;;;;;;;;;1780678;79;22818;-78
2021/01/28 08:14:18;;;;;;;12.13;6.53;;;;;;;;;;1752869;80;21163;-76
2021/01/28 08:16:46;;;;;;;14.60;7.25;;;;;;;;;;1753467;82;21227;-77
2021/01/28 08:19:16;;;;;;;16.67;7.83;;;;;;;;;;1753464;81;21116;-77
2021/01/28 08:21:42;;;;;;;15.15;7.35;;;;;;;;;;1753754;82;21609;-77
2021/01/28 08:24:09;;;;;;;16.25;7.28;;;;;;;;;;1753837;82;21140;-77
2021/01/28 08:26:38;;;;;;;12.28;7.47;;;;;;;;;;1753867;80;21232;-78
2021/01/28 08:29:06;;;;;;;14.15;7.92;;;;;;;;;;1753981;82;21218;-78
2021/01/28 08:31:34;;;;;;;19.00;8.13;;;;;;;;;;1753646;81;21274;-78
2021/01/28 08:34:02;;;;;;;13.75;6.85;;;;;;;;;;1750123;82;21202;-78
2021/01/28 08:36:29;;;;;;;12.53;6.83;;;;;;;;;;1753938;82;21152;-78
2021/01/28 08:39:12;;;;;;;10.15;5.42;;;;;;;;;;1753857;82;21223;-77
2021/01/28 08:41:39;;;;;;;11.88;6.75;;;;;;;;;;1753778;82;21150;-77
2021/01/28 08:44:06;;;;;;;12.50;6.45;;;;;;;;;;1753972;82;21174;-77
2021/01/28 08:46:33;;;;;;;13.75;6.62;;;;;;;;;;1753756;82;21152;-78
2021/01/28 08:49:03;;;;;;;12.88;5.83;;;;;;;;;;1753657;82;21152;-77
2021/01/28 08:51:29;;;;;;;11.88;6.90;;;;;;;;;;1752451;82;21172;-78
2021/01/28 08:53:57;;;;;;;13.03;6.10;;;;;;;;;;1754057;82;21740;-78
2021/01/28 08:56:24;;;;;;;8.63;4.72;;;;;;;;;;1752897;82;21587;-78
2021/01/28 08:58:50;;;;;;;12.37;6.28;;;;;;;;;;1744761;82;21130;-79
2021/01/28 09:01:16;;;;;;;12.93;6.50;;;;;;;;;;1723820;83;21167;-79
2021/01/28 09:04:03;;;;;;;12.98;6.25;;;;;;;;;;1724061;83;21170;-78
2021/01/28 09:06:29;;;;;;;10.93;6.20;;;;;;;;;;1723685;83;21143;-78
2021/01/28 09:09:00;;;;;;;12.90;6.00;;;;;;;;;;1695674;83;21543;-78
2021/01/28 09:11:27;;;;;;;17.82;7.37;;;;;;;;;;1712823;83;21309;-77
2021/01/28 09:14:04;;;;;;;20.62;8.45;;;;;;;;;;1710934;84;21164;-78
2021/01/28 09:16:31;;;;;;;16.82;8.13;;;;;;;;;;1711029;84;21737;-79
2021/01/28 09:18:59;;;;;;;12.35;6.10;;;;;;;;;;1710885;83;21196;-76
2021/01/28 09:21:27;;;;;;;13.75;6.45;;;;;;;;;;1709818;84;21314;-78
2021/01/28 09:23:54;;;;;;;11.45;5.65;;;;;;;;;;1709148;84;21168;-79
2021/01/28 09:26:24;;;;;;;10.80;6.00;;;;;;;;;;1710801;84;21159;-72
2021/01/28 09:28:50;;;;;;;12.05;7.00;;;;;;;;;;1710619;84;21164;-75
2021/01/28 09:31:21;;;;;;;11.38;6.17;;;;;;;;;;1710343;84;21161;-77
2021/01/28 09:33:47;;;;;;;10.50;6.05;;;;;;;;;;1710510;83;21148;-75
2021/01/28 09:36:21;;;;;;;12.33;5.35;;;;;;;;;;1710130;84;21168;-75
2021/01/28 09:39:04;;;;;;;11.73;6.90;;;;;;;;;;1710774;84;21180;-75
2021/01/28 09:41:32;;;;;;;11.90;6.03;;;;;;;;;;1710401;84;21208;-76
2021/01/28 09:43:58;;;;;;;8.95;5.80;;;;;;;;;;1709015;84;21156;-77
